Pittsville, Maryland
Current Conditions -  °F | °C
As of 8:54 PM on Thursday 18 Dec 2014 (Local Time) from KSBY Reporting Station
Clear Clear  
Wind Chill: 33°   Ceiling: Unl
Heat Index: 38°   Visibility: 10mi
Dew Point: 24°   Wind: 6mph
Humidity: 57%   Direction: 320°NW
Pressure: 30.09"   Gusts: NA
Location:  38.4°N, 75.41°W
Report Text: KSBY 190154Z 32005KT 10SM CLR 03/M04 A3009 RMK AO2 SLP192 T00331044
Loading
Personal Weather Stations






























Interactive Weather Map New forecast layout! Learn more

10-Day Weather Forecast

Advertisements
Track Severe Weather on mobile